sensor_id;sensor_type;location;lat;lon;timestamp;P1;durP1;ratioP1;P2;durP2;ratioP2
73337;SDS011;61575;49.908;35.556;2023-07-08T00:00:48;4.00;;;2.30;;
73337;SDS011;61575;49.908;35.556;2023-07-08T00:06:52;4.23;;;2.40;;
73337;SDS011;61575;49.908;35.556;2023-07-08T00:09:54;4.80;;;2.40;;
73337;SDS011;61575;49.908;35.556;2023-07-08T00:12:57;4.18;;;2.38;;
73337;SDS011;61575;49.908;35.556;2023-07-08T00:15:59;4.75;;;2.30;;
73337;SDS011;61575;49.908;35.556;2023-07-08T00:19:01;4.32;;;2.47;;
73337;SDS011;61575;49.908;35.556;2023-07-08T00:22:08;4.78;;;2.47;;
73337;SDS011;61575;49.908;35.556;2023-07-08T00:25:13;4.20;;;2.40;;
73337;SDS011;61575;49.908;35.556;2023-07-08T00:28:17;5.10;;;2.78;;
73337;SDS011;61575;49.908;35.556;2023-07-08T00:31:22;4.55;;;2.60;;
73337;SDS011;61575;49.908;35.556;2023-07-08T00:34:28;5.10;;;2.72;;
73337;SDS011;61575;49.908;35.556;2023-07-08T00:37:29;4.88;;;2.83;;
73337;SDS011;61575;49.908;35.556;2023-07-08T00:47:02;5.05;;;2.80;;
73337;SDS011;61575;49.908;35.556;2023-07-08T00:50:07;4.45;;;2.60;;
73337;SDS011;61575;49.908;35.556;2023-07-08T00:56:32;4.40;;;2.33;;
73337;SDS011;61575;49.908;35.556;2023-07-08T00:59:52;4.68;;;2.40;;
73337;SDS011;61575;49.908;35.556;2023-07-08T01:02:58;4.78;;;2.92;;
73337;SDS011;61575;49.908;35.556;2023-07-08T01:06:00;4.25;;;2.53;;
73337;SDS011;61575;49.908;35.556;2023-07-08T01:09:03;5.80;;;2.90;;
73337;SDS011;61575;49.908;35.556;2023-07-08T01:12:07;4.47;;;2.85;;
73337;SDS011;61575;49.908;35.556;2023-07-08T01:15:13;4.53;;;2.60;;
73337;SDS011;61575;49.908;35.556;2023-07-08T01:18:17;4.75;;;2.97;;
73337;SDS011;61575;49.908;35.556;2023-07-08T01:24:40;5.78;;;3.40;;
73337;SDS011;61575;49.908;35.556;2023-07-08T01:27:47;5.13;;;3.15;;
73337;SDS011;61575;49.908;35.556;2023-07-08T01:30:54;6.18;;;3.10;;
73337;SDS011;61575;49.908;35.556;2023-07-08T01:33:56;5.28;;;3.20;;
73337;SDS011;61575;49.908;35.556;2023-07-08T01:36:59;6.88;;;3.85;;
73337;SDS011;61575;49.908;35.556;2023-07-08T01:46:27;6.30;;;3.63;;
73337;SDS011;61575;49.908;35.556;2023-07-08T01:49:30;7.55;;;3.67;;
73337;SDS011;61575;49.908;35.556;2023-07-08T01:52:32;7.13;;;4.32;;
73337;SDS011;61575;49.908;35.556;2023-07-08T01:55:34;6.22;;;3.72;;
73337;SDS011;61575;49.908;35.556;2023-07-08T01:58:36;7.85;;;4.15;;
73337;SDS011;61575;49.908;35.556;2023-07-08T02:01:38;6.50;;;3.75;;
73337;SDS011;61575;49.908;35.556;2023-07-08T02:04:40;5.72;;;3.67;;
73337;SDS011;61575;49.908;35.556;2023-07-08T02:07:42;7.30;;;4.45;;
73337;SDS011;61575;49.908;35.556;2023-07-08T02:10:49;6.70;;;4.10;;
73337;SDS011;61575;49.908;35.556;2023-07-08T02:13:52;8.32;;;4.65;;
73337;SDS011;61575;49.908;35.556;2023-07-08T02:16:54;6.55;;;3.90;;
73337;SDS011;61575;49.908;35.556;2023-07-08T02:19:56;5.97;;;4.25;;
73337;SDS011;61575;49.908;35.556;2023-07-08T02:22:58;6.00;;;4.32;;
73337;SDS011;61575;49.908;35.556;2023-07-08T02:26:00;6.40;;;4.10;;
73337;SDS011;61575;49.908;35.556;2023-07-08T02:29:02;7.03;;;4.22;;
73337;SDS011;61575;49.908;35.556;2023-07-08T02:35:08;6.20;;;4.20;;
73337;SDS011;61575;49.908;35.556;2023-07-08T02:38:10;6.93;;;4.38;;
73337;SDS011;61575;49.908;35.556;2023-07-08T02:41:12;7.10;;;4.50;;
73337;SDS011;61575;49.908;35.556;2023-07-08T02:44:14;8.13;;;4.82;;
73337;SDS011;61575;49.908;35.556;2023-07-08T02:47:16;7.47;;;5.00;;
73337;SDS011;61575;49.908;35.556;2023-07-08T02:50:18;7.00;;;4.80;;
73337;SDS011;61575;49.908;35.556;2023-07-08T02:53:20;7.95;;;5.15;;
73337;SDS011;61575;49.908;35.556;2023-07-08T02:56:22;7.72;;;5.32;;
73337;SDS011;61575;49.908;35.556;2023-07-08T03:02:26;8.40;;;5.93;;
73337;SDS011;61575;49.908;35.556;2023-07-08T03:05:28;8.65;;;5.60;;
73337;SDS011;61575;49.908;35.556;2023-07-08T03:08:30;8.38;;;5.88;;
73337;SDS011;61575;49.908;35.556;2023-07-08T03:14:34;8.80;;;6.33;;
73337;SDS011;61575;49.908;35.556;2023-07-08T03:17:37;7.80;;;5.35;;
73337;SDS011;61575;49.908;35.556;2023-07-08T03:20:40;7.90;;;5.70;;
73337;SDS011;61575;49.908;35.556;2023-07-08T03:23:43;8.57;;;5.85;;
73337;SDS011;61575;49.908;35.556;2023-07-08T03:26:46;8.80;;;5.80;;
73337;SDS011;61575;49.908;35.556;2023-07-08T03:29:48;9.25;;;6.22;;
73337;SDS011;61575;49.908;35.556;2023-07-08T03:32:50;9.23;;;6.15;;
73337;SDS011;61575;49.908;35.556;2023-07-08T03:35:53;9.73;;;6.32;;
73337;SDS011;61575;49.908;35.556;2023-07-08T03:38:56;8.43;;;5.72;;
73337;SDS011;61575;49.908;35.556;2023-07-08T03:41:59;9.43;;;6.18;;
73337;SDS011;61575;49.908;35.556;2023-07-08T03:45:01;9.27;;;6.50;;
73337;SDS011;61575;49.908;35.556;2023-07-08T03:51:10;9.40;;;6.78;;
73337;SDS011;61575;49.908;35.556;2023-07-08T03:57:32;9.05;;;6.13;;
73337;SDS011;61575;49.908;35.556;2023-07-08T04:03:36;8.75;;;6.00;;
73337;SDS011;61575;49.908;35.556;2023-07-08T04:06:39;10.55;;;7.70;;
73337;SDS011;61575;49.908;35.556;2023-07-08T04:09:41;11.60;;;7.18;;
73337;SDS011;61575;49.908;35.556;2023-07-08T04:12:45;10.02;;;6.63;;
73337;SDS011;61575;49.908;35.556;2023-07-08T04:15:50;9.38;;;6.80;;
73337;SDS011;61575;49.908;35.556;2023-07-08T04:18:56;11.07;;;7.82;;
73337;SDS011;61575;49.908;35.556;2023-07-08T04:22:00;9.23;;;6.50;;
73337;SDS011;61575;49.908;35.556;2023-07-08T04:25:03;29.45;;;19.40;;
73337;SDS011;61575;49.908;35.556;2023-07-08T04:28:05;10.40;;;7.72;;
73337;SDS011;61575;49.908;35.556;2023-07-08T04:31:07;9.57;;;7.13;;
73337;SDS011;61575;49.908;35.556;2023-07-08T04:34:15;9.85;;;6.90;;
73337;SDS011;61575;49.908;35.556;2023-07-08T04:37:18;10.57;;;6.82;;
73337;SDS011;61575;49.908;35.556;2023-07-08T04:40:23;9.60;;;6.75;;
73337;SDS011;61575;49.908;35.556;2023-07-08T04:43:25;8.60;;;6.57;;
73337;SDS011;61575;49.908;35.556;2023-07-08T04:46:32;8.75;;;6.25;;
73337;SDS011;61575;49.908;35.556;2023-07-08T04:49:40;10.07;;;6.88;;
73337;SDS011;61575;49.908;35.556;2023-07-08T04:52:43;8.40;;;6.25;;
73337;SDS011;61575;49.908;35.556;2023-07-08T04:55:46;8.27;;;5.95;;
73337;SDS011;61575;49.908;35.556;2023-07-08T04:58:51;8.30;;;5.82;;
73337;SDS011;61575;49.908;35.556;2023-07-08T05:01:53;7.38;;;5.70;;
73337;SDS011;61575;49.908;35.556;2023-07-08T05:07:57;7.68;;;5.15;;
73337;SDS011;61575;49.908;35.556;2023-07-08T05:10:59;9.00;;;5.35;;
73337;SDS011;61575;49.908;35.556;2023-07-08T05:14:01;7.97;;;5.25;;
73337;SDS011;61575;49.908;35.556;2023-07-08T05:17:04;7.35;;;5.30;;
73337;SDS011;61575;49.908;35.556;2023-07-08T05:20:07;7.97;;;4.97;;
73337;SDS011;61575;49.908;35.556;2023-07-08T05:23:11;7.22;;;4.72;;
73337;SDS011;61575;49.908;35.556;2023-07-08T05:26:13;6.82;;;4.93;;
73337;SDS011;61575;49.908;35.556;2023-07-08T05:29:14;7.63;;;5.43;;
73337;SDS011;61575;49.908;35.556;2023-07-08T05:35:19;7.85;;;5.10;;
73337;SDS011;61575;49.908;35.556;2023-07-08T05:41:23;7.95;;;5.15;;
73337;SDS011;61575;49.908;35.556;2023-07-08T05:47:27;8.32;;;5.50;;
73337;SDS011;61575;49.908;35.556;2023-07-08T05:53:30;7.97;;;5.40;;
73337;SDS011;61575;49.908;35.556;2023-07-08T05:59:34;7.03;;;5.20;;
73337;SDS011;61575;49.908;35.556;2023-07-08T06:02:37;7.72;;;4.97;;
73337;SDS011;61575;49.908;35.556;2023-07-08T06:05:39;8.13;;;4.80;;
73337;SDS011;61575;49.908;35.556;2023-07-08T06:08:42;6.22;;;4.30;;
73337;SDS011;61575;49.908;35.556;2023-07-08T06:11:44;7.22;;;4.38;;
73337;SDS011;61575;49.908;35.556;2023-07-08T06:14:46;6.20;;;4.10;;
73337;SDS011;61575;49.908;35.556;2023-07-08T06:20:50;7.93;;;4.50;;
73337;SDS011;61575;49.908;35.556;2023-07-08T06:23:53;6.15;;;3.88;;
73337;SDS011;61575;49.908;35.556;2023-07-08T06:30:00;6.90;;;4.22;;
73337;SDS011;61575;49.908;35.556;2023-07-08T06:33:02;5.82;;;3.90;;
73337;SDS011;61575;49.908;35.556;2023-07-08T06:36:04;6.70;;;4.07;;
73337;SDS011;61575;49.908;35.556;2023-07-08T06:39:06;5.80;;;3.55;;
73337;SDS011;61575;49.908;35.556;2023-07-08T06:42:10;5.07;;;3.50;;
73337;SDS011;61575;49.908;35.556;2023-07-08T06:45:17;5.90;;;3.80;;
73337;SDS011;61575;49.908;35.556;2023-07-08T06:51:21;4.85;;;3.33;;
73337;SDS011;61575;49.908;35.556;2023-07-08T06:54:23;5.65;;;3.38;;
73337;SDS011;61575;49.908;35.556;2023-07-08T06:57:26;5.53;;;3.47;;
73337;SDS011;61575;49.908;35.556;2023-07-08T07:00:28;5.03;;;2.90;;
73337;SDS011;61575;49.908;35.556;2023-07-08T07:03:30;5.75;;;3.00;;
73337;SDS011;61575;49.908;35.556;2023-07-08T07:06:32;5.18;;;2.75;;
73337;SDS011;61575;49.908;35.556;2023-07-08T07:09:34;5.65;;;3.20;;
73337;SDS011;61575;49.908;35.556;2023-07-08T07:12:36;6.38;;;3.40;;
73337;SDS011;61575;49.908;35.556;2023-07-08T07:15:38;5.07;;;3.10;;
73337;SDS011;61575;49.908;35.556;2023-07-08T07:18:40;5.30;;;2.72;;
73337;SDS011;61575;49.908;35.556;2023-07-08T07:21:42;5.90;;;3.13;;
73337;SDS011;61575;49.908;35.556;2023-07-08T07:24:44;4.90;;;3.13;;
73337;SDS011;61575;49.908;35.556;2023-07-08T07:30:54;4.85;;;2.80;;
73337;SDS011;61575;49.908;35.556;2023-07-08T07:33:58;4.72;;;3.05;;
73337;SDS011;61575;49.908;35.556;2023-07-08T07:37:01;5.53;;;2.97;;
73337;SDS011;61575;49.908;35.556;2023-07-08T07:40:03;4.45;;;2.75;;
73337;SDS011;61575;49.908;35.556;2023-07-08T07:43:06;4.47;;;2.97;;
73337;SDS011;61575;49.908;35.556;2023-07-08T07:46:08;5.15;;;2.85;;
73337;SDS011;61575;49.908;35.556;2023-07-08T07:49:12;5.30;;;3.15;;
73337;SDS011;61575;49.908;35.556;2023-07-08T07:52:14;5.28;;;2.70;;
73337;SDS011;61575;49.908;35.556;2023-07-08T07:55:19;4.70;;;2.80;;
73337;SDS011;61575;49.908;35.556;2023-07-08T07:58:21;4.00;;;2.40;;
73337;SDS011;61575;49.908;35.556;2023-07-08T08:01:23;4.65;;;2.58;;
73337;SDS011;61575;49.908;35.556;2023-07-08T08:04:25;4.32;;;2.65;;
73337;SDS011;61575;49.908;35.556;2023-07-08T08:07:27;7.00;;;2.60;;
73337;SDS011;61575;49.908;35.556;2023-07-08T08:10:29;4.35;;;2.30;;
73337;SDS011;61575;49.908;35.556;2023-07-08T08:13:32;4.35;;;2.58;;
73337;SDS011;61575;49.908;35.556;2023-07-08T08:16:34;4.90;;;2.88;;
73337;SDS011;61575;49.908;35.556;2023-07-08T08:19:36;5.43;;;2.50;;
73337;SDS011;61575;49.908;35.556;2023-07-08T08:22:38;4.32;;;2.40;;
73337;SDS011;61575;49.908;35.556;2023-07-08T08:25:40;4.32;;;2.30;;
73337;SDS011;61575;49.908;35.556;2023-07-08T08:28:42;4.93;;;2.35;;
73337;SDS011;61575;49.908;35.556;2023-07-08T08:31:44;4.88;;;2.55;;
73337;SDS011;61575;49.908;35.556;2023-07-08T08:34:46;5.22;;;2.40;;
73337;SDS011;61575;49.908;35.556;2023-07-08T08:37:48;4.28;;;2.50;;
73337;SDS011;61575;49.908;35.556;2023-07-08T08:40:50;5.15;;;2.83;;
73337;SDS011;61575;49.908;35.556;2023-07-08T08:43:52;6.07;;;3.45;;
73337;SDS011;61575;49.908;35.556;2023-07-08T08:50:33;8.45;;;5.45;;
73337;SDS011;61575;49.908;35.556;2023-07-08T09:00:07;4.20;;;2.53;;
73337;SDS011;61575;49.908;35.556;2023-07-08T09:03:12;5.35;;;2.80;;
73337;SDS011;61575;49.908;35.556;2023-07-08T09:06:28;4.65;;;2.70;;
73337;SDS011;61575;49.908;35.556;2023-07-08T09:12:39;4.07;;;2.10;;
73337;SDS011;61575;49.908;35.556;2023-07-08T09:15:41;4.63;;;2.70;;
73337;SDS011;61575;49.908;35.556;2023-07-08T09:22:21;6.40;;;2.50;;
73337;SDS011;61575;49.908;35.556;2023-07-08T09:26:16;4.43;;;2.60;;
73337;SDS011;61575;49.908;35.556;2023-07-08T09:29:09;4.80;;;2.30;;
73337;SDS011;61575;49.908;35.556;2023-07-08T09:32:13;5.18;;;2.72;;
73337;SDS011;61575;49.908;35.556;2023-07-08T09:35:23;4.80;;;2.50;;
73337;SDS011;61575;49.908;35.556;2023-07-08T09:38:29;5.20;;;2.47;;
73337;SDS011;61575;49.908;35.556;2023-07-08T09:41:35;4.45;;;2.42;;
73337;SDS011;61575;49.908;35.556;2023-07-08T09:44:37;4.78;;;2.53;;
73337;SDS011;61575;49.908;35.556;2023-07-08T09:47:39;5.18;;;2.70;;
73337;SDS011;61575;49.908;35.556;2023-07-08T09:50:43;3.97;;;2.20;;
73337;SDS011;61575;49.908;35.556;2023-07-08T09:53:46;4.65;;;2.60;;
73337;SDS011;61575;49.908;35.556;2023-07-08T09:57:09;3.78;;;2.15;;
73337;SDS011;61575;49.908;35.556;2023-07-08T10:00:19;5.25;;;2.53;;
73337;SDS011;61575;49.908;35.556;2023-07-08T10:03:29;4.82;;;2.40;;
73337;SDS011;61575;49.908;35.556;2023-07-08T10:06:34;5.60;;;2.20;;
73337;SDS011;61575;49.908;35.556;2023-07-08T10:09:37;5.30;;;2.20;;
73337;SDS011;61575;49.908;35.556;2023-07-08T10:12:41;4.50;;;2.30;;
73337;SDS011;61575;49.908;35.556;2023-07-08T10:15:57;4.22;;;2.58;;
73337;SDS011;61575;49.908;35.556;2023-07-08T10:19:14;4.38;;;2.40;;
73337;SDS011;61575;49.908;35.556;2023-07-08T10:25:47;4.80;;;2.63;;
73337;SDS011;61575;49.908;35.556;2023-07-08T10:32:37;4.15;;;2.50;;
73337;SDS011;61575;49.908;35.556;2023-07-08T10:42:23;4.47;;;2.45;;
73337;SDS011;61575;49.908;35.556;2023-07-08T10:45:34;3.88;;;2.08;;
73337;SDS011;61575;49.908;35.556;2023-07-08T10:52:10;4.20;;;2.50;;
73337;SDS011;61575;49.908;35.556;2023-07-08T11:05:45;3.75;;;2.35;;
73337;SDS011;61575;49.908;35.556;2023-07-08T11:09:02;4.25;;;2.22;;
73337;SDS011;61575;49.908;35.556;2023-07-08T11:15:36;5.22;;;2.50;;
73337;SDS011;61575;49.908;35.556;2023-07-08T11:22:07;6.15;;;2.78;;
73337;SDS011;61575;49.908;35.556;2023-07-08T11:25:16;5.13;;;2.72;;
73337;SDS011;61575;49.908;35.556;2023-07-08T11:28:20;4.35;;;2.55;;
73337;SDS011;61575;49.908;35.556;2023-07-08T11:31:25;5.53;;;2.72;;
73337;SDS011;61575;49.908;35.556;2023-07-08T11:34:31;6.80;;;3.22;;
73337;SDS011;61575;49.908;35.556;2023-07-08T11:37:35;5.60;;;3.10;;
73337;SDS011;61575;49.908;35.556;2023-07-08T11:44:03;4.43;;;2.42;;
73337;SDS011;61575;49.908;35.556;2023-07-08T11:47:12;6.03;;;2.45;;
73337;SDS011;61575;49.908;35.556;2023-07-08T11:50:21;4.20;;;2.35;;
73337;SDS011;61575;49.908;35.556;2023-07-08T12:00:05;3.97;;;2.28;;
73337;SDS011;61575;49.908;35.556;2023-07-08T12:03:21;4.28;;;2.42;;
73337;SDS011;61575;49.908;35.556;2023-07-08T12:09:29;3.78;;;2.20;;
73337;SDS011;61575;49.908;35.556;2023-07-08T12:12:40;4.65;;;2.50;;
73337;SDS011;61575;49.908;35.556;2023-07-08T12:15:43;4.32;;;2.20;;
73337;SDS011;61575;49.908;35.556;2023-07-08T12:18:45;5.03;;;2.30;;
73337;SDS011;61575;49.908;35.556;2023-07-08T12:21:51;3.78;;;2.30;;
73337;SDS011;61575;49.908;35.556;2023-07-08T12:24:53;4.47;;;2.50;;
73337;SDS011;61575;49.908;35.556;2023-07-08T12:27:56;4.25;;;2.53;;
73337;SDS011;61575;49.908;35.556;2023-07-08T12:30:58;4.60;;;2.38;;
73337;SDS011;61575;49.908;35.556;2023-07-08T12:34:01;4.78;;;2.30;;
73337;SDS011;61575;49.908;35.556;2023-07-08T12:37:04;4.32;;;2.20;;
73337;SDS011;61575;49.908;35.556;2023-07-08T12:40:14;6.25;;;2.28;;
73337;SDS011;61575;49.908;35.556;2023-07-08T12:43:16;4.03;;;2.00;;
73337;SDS011;61575;49.908;35.556;2023-07-08T12:46:20;3.35;;;1.90;;
73337;SDS011;61575;49.908;35.556;2023-07-08T12:49:23;3.47;;;2.00;;
73337;SDS011;61575;49.908;35.556;2023-07-08T12:52:29;3.72;;;2.22;;
73337;SDS011;61575;49.908;35.556;2023-07-08T12:55:30;7.40;;;2.70;;
73337;SDS011;61575;49.908;35.556;2023-07-08T12:58:34;3.75;;;2.17;;
73337;SDS011;61575;49.908;35.556;2023-07-08T13:01:40;3.63;;;2.10;;
73337;SDS011;61575;49.908;35.556;2023-07-08T13:04:43;4.50;;;2.22;;
73337;SDS011;61575;49.908;35.556;2023-07-08T13:07:47;3.83;;;2.10;;
73337;SDS011;61575;49.908;35.556;2023-07-08T13:10:49;4.10;;;2.40;;
73337;SDS011;61575;49.908;35.556;2023-07-08T13:13:55;3.70;;;2.20;;
73337;SDS011;61575;49.908;35.556;2023-07-08T13:17:00;3.38;;;2.05;;
73337;SDS011;61575;49.908;35.556;2023-07-08T13:20:03;4.40;;;2.22;;
73337;SDS011;61575;49.908;35.556;2023-07-08T13:23:07;5.25;;;2.63;;
73337;SDS011;61575;49.908;35.556;2023-07-08T13:26:13;9.00;;;4.80;;
73337;SDS011;61575;49.908;35.556;2023-07-08T13:29:17;7.57;;;4.40;;
73337;SDS011;61575;49.908;35.556;2023-07-08T13:32:20;7.57;;;3.58;;
73337;SDS011;61575;49.908;35.556;2023-07-08T13:38:40;13.30;;;6.22;;
73337;SDS011;61575;49.908;35.556;2023-07-08T13:41:43;6.65;;;3.78;;
73337;SDS011;61575;49.908;35.556;2023-07-08T13:44:46;4.70;;;2.80;;
73337;SDS011;61575;49.908;35.556;2023-07-08T13:51:15;4.28;;;2.50;;
73337;SDS011;61575;49.908;35.556;2023-07-08T13:57:22;4.82;;;2.80;;
73337;SDS011;61575;49.908;35.556;2023-07-08T14:00:29;5.78;;;2.60;;
73337;SDS011;61575;49.908;35.556;2023-07-08T14:03:32;6.72;;;2.60;;
73337;SDS011;61575;49.908;35.556;2023-07-08T14:06:36;4.63;;;2.55;;
73337;SDS011;61575;49.908;35.556;2023-07-08T14:09:40;5.00;;;2.90;;
73337;SDS011;61575;49.908;35.556;2023-07-08T14:12:41;4.65;;;2.50;;
73337;SDS011;61575;49.908;35.556;2023-07-08T14:15:43;4.50;;;2.50;;
73337;SDS011;61575;49.908;35.556;2023-07-08T14:18:46;4.65;;;2.72;;
73337;SDS011;61575;49.908;35.556;2023-07-08T14:21:51;5.25;;;2.90;;
73337;SDS011;61575;49.908;35.556;2023-07-08T14:25:01;4.13;;;2.83;;
73337;SDS011;61575;49.908;35.556;2023-07-08T14:28:08;5.30;;;2.72;;
73337;SDS011;61575;49.908;35.556;2023-07-08T14:31:11;3.70;;;2.40;;
73337;SDS011;61575;49.908;35.556;2023-07-08T14:34:17;4.78;;;2.55;;
73337;SDS011;61575;49.908;35.556;2023-07-08T14:37:25;5.20;;;2.92;;
73337;SDS011;61575;49.908;35.556;2023-07-08T14:40:32;5.45;;;2.90;;
73337;SDS011;61575;49.908;35.556;2023-07-08T14:43:35;5.03;;;2.90;;
73337;SDS011;61575;49.908;35.556;2023-07-08T14:46:40;4.90;;;2.80;;
73337;SDS011;61575;49.908;35.556;2023-07-08T14:49:42;5.57;;;2.83;;
73337;SDS011;61575;49.908;35.556;2023-07-08T14:52:44;7.28;;;3.42;;
73337;SDS011;61575;49.908;35.556;2023-07-08T14:58:49;4.88;;;2.90;;
73337;SDS011;61575;49.908;35.556;2023-07-08T15:01:51;5.15;;;3.10;;
73337;SDS011;61575;49.908;35.556;2023-07-08T15:04:55;6.30;;;3.65;;
73337;SDS011;61575;49.908;35.556;2023-07-08T15:07:57;6.22;;;3.63;;
73337;SDS011;61575;49.908;35.556;2023-07-08T15:11:00;5.03;;;3.20;;
73337;SDS011;61575;49.908;35.556;2023-07-08T15:14:03;5.18;;;3.22;;
73337;SDS011;61575;49.908;35.556;2023-07-08T15:17:09;5.25;;;2.95;;
73337;SDS011;61575;49.908;35.556;2023-07-08T15:20:15;5.18;;;3.28;;
73337;SDS011;61575;49.908;35.556;2023-07-08T15:23:17;5.60;;;2.70;;
73337;SDS011;61575;49.908;35.556;2023-07-08T15:26:20;4.75;;;2.70;;
73337;SDS011;61575;49.908;35.556;2023-07-08T15:29:23;5.60;;;3.13;;
73337;SDS011;61575;49.908;35.556;2023-07-08T15:32:25;6.55;;;2.83;;
73337;SDS011;61575;49.908;35.556;2023-07-08T15:35:42;4.88;;;3.00;;
73337;SDS011;61575;49.908;35.556;2023-07-08T15:38:45;6.68;;;1.70;;
73337;SDS011;61575;49.908;35.556;2023-07-08T15:41:47;5.00;;;1.02;;
73337;SDS011;61575;49.908;35.556;2023-07-08T15:47:53;3.28;;;1.13;;
73337;SDS011;61575;49.908;35.556;2023-07-08T15:50:56;2.40;;;1.00;;
73337;SDS011;61575;49.908;35.556;2023-07-08T15:56:59;2.53;;;1.40;;
73337;SDS011;61575;49.908;35.556;2023-07-08T16:03:13;3.65;;;1.33;;
73337;SDS011;61575;49.908;35.556;2023-07-08T16:22:17;3.03;;;1.20;;
73337;SDS011;61575;49.908;35.556;2023-07-08T16:25:30;1.60;;;1.00;;
73337;SDS011;61575;49.908;35.556;2023-07-08T16:28:34;2.75;;;0.95;;
73337;SDS011;61575;49.908;35.556;2023-07-08T16:31:42;3.28;;;0.95;;
73337;SDS011;61575;49.908;35.556;2023-07-08T16:37:46;1.40;;;0.87;;
73337;SDS011;61575;49.908;35.556;2023-07-08T16:40:50;2.63;;;0.90;;
73337;SDS011;61575;49.908;35.556;2023-07-08T16:43:52;2.13;;;1.05;;
73337;SDS011;61575;49.908;35.556;2023-07-08T16:46:54;2.28;;;0.90;;
73337;SDS011;61575;49.908;35.556;2023-07-08T16:49:58;1.65;;;0.82;;
73337;SDS011;61575;49.908;35.556;2023-07-08T16:53:00;2.25;;;0.98;;
73337;SDS011;61575;49.908;35.556;2023-07-08T16:56:03;2.38;;;1.00;;
73337;SDS011;61575;49.908;35.556;2023-07-08T16:59:05;2.97;;;1.20;;
73337;SDS011;61575;49.908;35.556;2023-07-08T17:02:11;3.05;;;1.17;;
73337;SDS011;61575;49.908;35.556;2023-07-08T17:08:24;2.38;;;1.20;;
73337;SDS011;61575;49.908;35.556;2023-07-08T17:11:30;2.60;;;1.00;;
73337;SDS011;61575;49.908;35.556;2023-07-08T17:14:32;1.58;;;0.90;;
73337;SDS011;61575;49.908;35.556;2023-07-08T17:17:34;2.67;;;1.38;;
73337;SDS011;61575;49.908;35.556;2023-07-08T17:20:37;3.25;;;1.45;;
73337;SDS011;61575;49.908;35.556;2023-07-08T17:23:40;3.28;;;1.63;;
73337;SDS011;61575;49.908;35.556;2023-07-08T17:29:44;3.15;;;1.35;;
73337;SDS011;61575;49.908;35.556;2023-07-08T17:32:46;3.58;;;1.38;;
73337;SDS011;61575;49.908;35.556;2023-07-08T17:35:51;2.63;;;1.20;;
73337;SDS011;61575;49.908;35.556;2023-07-08T17:38:55;3.30;;;1.10;;
73337;SDS011;61575;49.908;35.556;2023-07-08T17:41:58;3.20;;;1.48;;
73337;SDS011;61575;49.908;35.556;2023-07-08T17:45:00;3.05;;;1.13;;
73337;SDS011;61575;49.908;35.556;2023-07-08T17:48:02;3.05;;;1.27;;
73337;SDS011;61575;49.908;35.556;2023-07-08T17:51:17;2.28;;;1.17;;
73337;SDS011;61575;49.908;35.556;2023-07-08T17:54:23;3.08;;;1.38;;
73337;SDS011;61575;49.908;35.556;2023-07-08T17:57:27;2.63;;;1.27;;
73337;SDS011;61575;49.908;35.556;2023-07-08T18:00:29;3.35;;;1.52;;
73337;SDS011;61575;49.908;35.556;2023-07-08T18:06:33;3.40;;;1.50;;
73337;SDS011;61575;49.908;35.556;2023-07-08T18:09:34;2.67;;;1.40;;
73337;SDS011;61575;49.908;35.556;2023-07-08T18:12:36;2.63;;;1.10;;
73337;SDS011;61575;49.908;35.556;2023-07-08T18:15:39;2.92;;;1.42;;
73337;SDS011;61575;49.908;35.556;2023-07-08T18:18:43;2.42;;;1.25;;
73337;SDS011;61575;49.908;35.556;2023-07-08T18:21:46;3.30;;;1.50;;
73337;SDS011;61575;49.908;35.556;2023-07-08T18:24:49;3.60;;;1.40;;
73337;SDS011;61575;49.908;35.556;2023-07-08T18:27:51;2.88;;;1.38;;
73337;SDS011;61575;49.908;35.556;2023-07-08T18:30:53;3.58;;;1.50;;
73337;SDS011;61575;49.908;35.556;2023-07-08T18:40:01;3.08;;;1.70;;
73337;SDS011;61575;49.908;35.556;2023-07-08T18:43:07;4.22;;;1.65;;
73337;SDS011;61575;49.908;35.556;2023-07-08T18:46:12;2.85;;;1.48;;
73337;SDS011;61575;49.908;35.556;2023-07-08T18:49:15;3.10;;;1.63;;
73337;SDS011;61575;49.908;35.556;2023-07-08T18:52:17;3.03;;;1.65;;
73337;SDS011;61575;49.908;35.556;2023-07-08T18:55:20;3.95;;;1.42;;
73337;SDS011;61575;49.908;35.556;2023-07-08T18:58:24;2.60;;;1.30;;
73337;SDS011;61575;49.908;35.556;2023-07-08T19:01:26;3.30;;;1.52;;
73337;SDS011;61575;49.908;35.556;2023-07-08T19:04:29;3.42;;;1.60;;
73337;SDS011;61575;49.908;35.556;2023-07-08T19:07:31;4.25;;;1.98;;
73337;SDS011;61575;49.908;35.556;2023-07-08T19:10:32;3.15;;;1.50;;
73337;SDS011;61575;49.908;35.556;2023-07-08T19:13:36;3.47;;;1.50;;
73337;SDS011;61575;49.908;35.556;2023-07-08T19:16:38;3.70;;;1.40;;
73337;SDS011;61575;49.908;35.556;2023-07-08T19:19:40;3.97;;;1.88;;
73337;SDS011;61575;49.908;35.556;2023-07-08T19:22:42;2.75;;;1.50;;
73337;SDS011;61575;49.908;35.556;2023-07-08T19:25:46;5.28;;;1.98;;
73337;SDS011;61575;49.908;35.556;2023-07-08T19:28:48;2.80;;;1.52;;
73337;SDS011;61575;49.908;35.556;2023-07-08T19:31:51;3.22;;;1.50;;
73337;SDS011;61575;49.908;35.556;2023-07-08T19:34:53;4.75;;;1.80;;
73337;SDS011;61575;49.908;35.556;2023-07-08T19:37:54;3.22;;;1.50;;
73337;SDS011;61575;49.908;35.556;2023-07-08T19:40:56;3.15;;;1.63;;
73337;SDS011;61575;49.908;35.556;2023-07-08T19:43:59;6.68;;;1.50;;
73337;SDS011;61575;49.908;35.556;2023-07-08T19:47:07;3.45;;;1.63;;
73337;SDS011;61575;49.908;35.556;2023-07-08T19:50:11;3.80;;;2.00;;
73337;SDS011;61575;49.908;35.556;2023-07-08T19:53:14;3.63;;;1.85;;
73337;SDS011;61575;49.908;35.556;2023-07-08T19:56:18;4.18;;;1.88;;
73337;SDS011;61575;49.908;35.556;2023-07-08T19:59:25;4.57;;;1.88;;
73337;SDS011;61575;49.908;35.556;2023-07-08T20:02:29;3.70;;;1.50;;
73337;SDS011;61575;49.908;35.556;2023-07-08T20:05:32;3.20;;;1.52;;
73337;SDS011;61575;49.908;35.556;2023-07-08T20:08:35;3.17;;;1.50;;
73337;SDS011;61575;49.908;35.556;2023-07-08T20:11:37;3.92;;;1.70;;
73337;SDS011;61575;49.908;35.556;2023-07-08T20:14:39;3.10;;;1.52;;
73337;SDS011;61575;49.908;35.556;2023-07-08T20:17:42;3.90;;;1.80;;
73337;SDS011;61575;49.908;35.556;2023-07-08T20:20:44;3.28;;;1.45;;
73337;SDS011;61575;49.908;35.556;2023-07-08T20:23:46;3.58;;;1.70;;
73337;SDS011;61575;49.908;35.556;2023-07-08T20:26:48;7.28;;;1.83;;
73337;SDS011;61575;49.908;35.556;2023-07-08T20:29:50;3.63;;;1.63;;
73337;SDS011;61575;49.908;35.556;2023-07-08T20:32:52;3.30;;;1.70;;
73337;SDS011;61575;49.908;35.556;2023-07-08T20:35:55;3.17;;;1.60;;
73337;SDS011;61575;49.908;35.556;2023-07-08T20:38:57;3.30;;;1.85;;
73337;SDS011;61575;49.908;35.556;2023-07-08T20:41:59;3.65;;;1.73;;
73337;SDS011;61575;49.908;35.556;2023-07-08T20:45:07;3.67;;;2.03;;
73337;SDS011;61575;49.908;35.556;2023-07-08T20:48:19;3.30;;;1.77;;
73337;SDS011;61575;49.908;35.556;2023-07-08T20:51:24;4.10;;;2.08;;
73337;SDS011;61575;49.908;35.556;2023-07-08T20:54:26;4.32;;;2.25;;
73337;SDS011;61575;49.908;35.556;2023-07-08T20:57:28;4.30;;;2.53;;
73337;SDS011;61575;49.908;35.556;2023-07-08T21:00:31;5.45;;;2.85;;
73337;SDS011;61575;49.908;35.556;2023-07-08T21:03:33;3.97;;;2.30;;
73337;SDS011;61575;49.908;35.556;2023-07-08T21:06:35;5.20;;;2.70;;
73337;SDS011;61575;49.908;35.556;2023-07-08T21:09:37;5.80;;;2.90;;
73337;SDS011;61575;49.908;35.556;2023-07-08T21:12:39;7.30;;;3.22;;
73337;SDS011;61575;49.908;35.556;2023-07-08T21:15:40;4.90;;;3.10;;
73337;SDS011;61575;49.908;35.556;2023-07-08T21:18:43;5.97;;;3.17;;
73337;SDS011;61575;49.908;35.556;2023-07-08T21:21:45;5.85;;;3.13;;